sensor_id;sensor_type;location;lat;lon;timestamp;P1;durP1;ratioP1;P2;durP2;ratioP2
4450;SDS011;2238;50.180;9.230;2022-11-20T00:00:34;29.63;;;16.90;;
4450;SDS011;2238;50.180;9.230;2022-11-20T00:03:35;27.00;;;16.50;;
4450;SDS011;2238;50.180;9.230;2022-11-20T00:06:36;25.93;;;15.93;;
4450;SDS011;2238;50.180;9.230;2022-11-20T00:09:36;25.50;;;16.30;;
4450;SDS011;2238;50.180;9.230;2022-11-20T00:12:37;27.80;;;16.17;;
4450;SDS011;2238;50.180;9.230;2022-11-20T00:15:38;27.80;;;16.90;;
4450;SDS011;2238;50.180;9.230;2022-11-20T00:18:38;21.07;;;14.30;;
4450;SDS011;2238;50.180;9.230;2022-11-20T00:21:39;28.20;;;18.17;;
4450;SDS011;2238;50.180;9.230;2022-11-20T00:24:39;27.10;;;14.30;;
4450;SDS011;2238;50.180;9.230;2022-11-20T00:27:40;24.53;;;16.40;;
4450;SDS011;2238;50.180;9.230;2022-11-20T00:30:40;24.73;;;15.63;;
4450;SDS011;2238;50.180;9.230;2022-11-20T00:33:41;24.83;;;15.67;;
4450;SDS011;2238;50.180;9.230;2022-11-20T00:36:43;23.83;;;15.20;;
4450;SDS011;2238;50.180;9.230;2022-11-20T00:39:43;26.50;;;16.37;;
4450;SDS011;2238;50.180;9.230;2022-11-20T00:42:44;22.37;;;15.07;;
4450;SDS011;2238;50.180;9.230;2022-11-20T00:45:45;28.30;;;16.43;;
4450;SDS011;2238;50.180;9.230;2022-11-20T00:48:45;27.13;;;16.33;;
4450;SDS011;2238;50.180;9.230;2022-11-20T00:51:46;26.07;;;18.07;;
4450;SDS011;2238;50.180;9.230;2022-11-20T00:54:47;27.67;;;17.50;;
4450;SDS011;2238;50.180;9.230;2022-11-20T00:57:47;28.00;;;17.13;;
4450;SDS011;2238;50.180;9.230;2022-11-20T01:00:48;27.60;;;16.23;;
4450;SDS011;2238;50.180;9.230;2022-11-20T01:03:49;24.03;;;15.00;;
4450;SDS011;2238;50.180;9.230;2022-11-20T01:06:51;24.60;;;14.40;;
4450;SDS011;2238;50.180;9.230;2022-11-20T01:09:52;28.40;;;16.23;;
4450;SDS011;2238;50.180;9.230;2022-11-20T01:12:53;24.70;;;15.90;;
4450;SDS011;2238;50.180;9.230;2022-11-20T01:16:20;25.63;;;16.00;;
4450;SDS011;2238;50.180;9.230;2022-11-20T01:19:26;28.37;;;16.47;;
4450;SDS011;2238;50.180;9.230;2022-11-20T01:22:26;24.97;;;16.03;;
4450;SDS011;2238;50.180;9.230;2022-11-20T01:25:27;26.40;;;15.50;;
4450;SDS011;2238;50.180;9.230;2022-11-20T01:28:28;22.63;;;15.43;;
4450;SDS011;2238;50.180;9.230;2022-11-20T01:31:32;25.97;;;15.77;;
4450;SDS011;2238;50.180;9.230;2022-11-20T01:34:34;24.33;;;14.83;;
4450;SDS011;2238;50.180;9.230;2022-11-20T01:37:35;24.47;;;15.30;;
4450;SDS011;2238;50.180;9.230;2022-11-20T01:40:36;25.40;;;15.40;;
4450;SDS011;2238;50.180;9.230;2022-11-20T01:43:36;27.30;;;16.70;;
4450;SDS011;2238;50.180;9.230;2022-11-20T01:46:38;24.20;;;15.70;;
4450;SDS011;2238;50.180;9.230;2022-11-20T01:49:42;28.10;;;17.40;;
4450;SDS011;2238;50.180;9.230;2022-11-20T01:52:49;27.50;;;16.40;;
4450;SDS011;2238;50.180;9.230;2022-11-20T01:55:55;25.30;;;14.70;;
4450;SDS011;2238;50.180;9.230;2022-11-20T01:58:59;29.70;;;17.57;;
4450;SDS011;2238;50.180;9.230;2022-11-20T02:02:03;22.83;;;15.27;;
4450;SDS011;2238;50.180;9.230;2022-11-20T02:05:09;28.40;;;17.37;;
4450;SDS011;2238;50.180;9.230;2022-11-20T02:08:32;29.80;;;16.13;;
4450;SDS011;2238;50.180;9.230;2022-11-20T02:11:33;34.47;;;18.00;;
4450;SDS011;2238;50.180;9.230;2022-11-20T02:14:34;28.60;;;17.30;;
4450;SDS011;2238;50.180;9.230;2022-11-20T02:17:34;27.57;;;15.97;;
4450;SDS011;2238;50.180;9.230;2022-11-20T02:20:35;27.77;;;16.33;;
4450;SDS011;2238;50.180;9.230;2022-11-20T02:23:38;23.47;;;13.93;;
4450;SDS011;2238;50.180;9.230;2022-11-20T02:30:00;26.97;;;15.83;;
4450;SDS011;2238;50.180;9.230;2022-11-20T02:33:03;28.17;;;15.13;;
4450;SDS011;2238;50.180;9.230;2022-11-20T02:36:03;25.93;;;16.27;;
4450;SDS011;2238;50.180;9.230;2022-11-20T02:39:04;25.67;;;16.03;;
4450;SDS011;2238;50.180;9.230;2022-11-20T02:42:06;26.87;;;16.90;;
4450;SDS011;2238;50.180;9.230;2022-11-20T02:45:07;31.97;;;18.20;;
4450;SDS011;2238;50.180;9.230;2022-11-20T02:48:08;29.20;;;16.50;;
4450;SDS011;2238;50.180;9.230;2022-11-20T02:51:08;24.87;;;16.50;;
4450;SDS011;2238;50.180;9.230;2022-11-20T02:54:09;26.83;;;17.17;;
4450;SDS011;2238;50.180;9.230;2022-11-20T02:57:09;27.00;;;17.47;;
4450;SDS011;2238;50.180;9.230;2022-11-20T03:00:10;27.17;;;17.17;;
4450;SDS011;2238;50.180;9.230;2022-11-20T03:03:11;28.30;;;17.57;;
4450;SDS011;2238;50.180;9.230;2022-11-20T03:06:12;28.57;;;16.77;;
4450;SDS011;2238;50.180;9.230;2022-11-20T03:09:12;27.90;;;17.73;;
4450;SDS011;2238;50.180;9.230;2022-11-20T03:12:13;43.13;;;23.73;;
4450;SDS011;2238;50.180;9.230;2022-11-20T03:15:14;31.53;;;18.40;;
4450;SDS011;2238;50.180;9.230;2022-11-20T03:18:14;28.27;;;17.37;;
4450;SDS011;2238;50.180;9.230;2022-11-20T03:21:15;28.07;;;16.77;;
4450;SDS011;2238;50.180;9.230;2022-11-20T03:24:16;34.13;;;19.40;;
4450;SDS011;2238;50.180;9.230;2022-11-20T03:27:16;27.70;;;16.93;;
4450;SDS011;2238;50.180;9.230;2022-11-20T03:30:17;31.27;;;20.27;;
4450;SDS011;2238;50.180;9.230;2022-11-20T03:33:18;27.30;;;18.10;;
4450;SDS011;2238;50.180;9.230;2022-11-20T03:36:19;34.97;;;21.07;;
4450;SDS011;2238;50.180;9.230;2022-11-20T03:39:20;32.40;;;16.87;;
4450;SDS011;2238;50.180;9.230;2022-11-20T03:42:21;30.77;;;17.40;;
4450;SDS011;2238;50.180;9.230;2022-11-20T03:45:40;32.03;;;19.00;;
4450;SDS011;2238;50.180;9.230;2022-11-20T03:48:40;26.30;;;16.07;;
4450;SDS011;2238;50.180;9.230;2022-11-20T03:51:41;29.70;;;19.40;;
4450;SDS011;2238;50.180;9.230;2022-11-20T03:54:42;29.00;;;17.53;;
4450;SDS011;2238;50.180;9.230;2022-11-20T03:57:42;30.47;;;17.80;;
4450;SDS011;2238;50.180;9.230;2022-11-20T04:00:43;25.37;;;16.30;;
4450;SDS011;2238;50.180;9.230;2022-11-20T04:03:43;26.03;;;16.27;;
4450;SDS011;2238;50.180;9.230;2022-11-20T04:06:45;27.77;;;17.67;;
4450;SDS011;2238;50.180;9.230;2022-11-20T04:09:46;28.07;;;16.90;;
4450;SDS011;2238;50.180;9.230;2022-11-20T04:12:46;28.23;;;15.90;;
4450;SDS011;2238;50.180;9.230;2022-11-20T04:15:47;26.67;;;16.40;;
4450;SDS011;2238;50.180;9.230;2022-11-20T04:18:51;22.40;;;14.50;;
4450;SDS011;2238;50.180;9.230;2022-11-20T04:21:55;27.60;;;17.50;;
4450;SDS011;2238;50.180;9.230;2022-11-20T04:24:55;29.73;;;17.10;;
4450;SDS011;2238;50.180;9.230;2022-11-20T04:27:56;31.03;;;18.20;;
4450;SDS011;2238;50.180;9.230;2022-11-20T04:31:13;33.07;;;19.10;;
4450;SDS011;2238;50.180;9.230;2022-11-20T04:34:15;35.17;;;19.40;;
4450;SDS011;2238;50.180;9.230;2022-11-20T04:37:16;39.73;;;20.27;;
4450;SDS011;2238;50.180;9.230;2022-11-20T04:40:17;31.70;;;18.50;;
4450;SDS011;2238;50.180;9.230;2022-11-20T04:43:17;32.90;;;19.50;;
4450;SDS011;2238;50.180;9.230;2022-11-20T04:46:18;33.10;;;19.50;;
4450;SDS011;2238;50.180;9.230;2022-11-20T04:49:20;30.97;;;18.00;;
4450;SDS011;2238;50.180;9.230;2022-11-20T04:52:20;30.27;;;16.87;;
4450;SDS011;2238;50.180;9.230;2022-11-20T04:55:21;26.80;;;15.93;;
4450;SDS011;2238;50.180;9.230;2022-11-20T04:58:22;32.27;;;18.43;;
4450;SDS011;2238;50.180;9.230;2022-11-20T05:01:23;26.07;;;15.63;;
4450;SDS011;2238;50.180;9.230;2022-11-20T05:04:24;28.43;;;17.07;;
4450;SDS011;2238;50.180;9.230;2022-11-20T05:07:25;24.80;;;15.20;;
4450;SDS011;2238;50.180;9.230;2022-11-20T05:10:25;24.03;;;14.90;;
4450;SDS011;2238;50.180;9.230;2022-11-20T05:13:27;26.33;;;17.30;;
4450;SDS011;2238;50.180;9.230;2022-11-20T05:16:28;30.20;;;17.33;;
4450;SDS011;2238;50.180;9.230;2022-11-20T05:19:28;23.13;;;14.90;;
4450;SDS011;2238;50.180;9.230;2022-11-20T05:22:29;25.63;;;16.33;;
4450;SDS011;2238;50.180;9.230;2022-11-20T05:25:29;29.43;;;15.23;;
4450;SDS011;2238;50.180;9.230;2022-11-20T05:28:30;28.07;;;15.93;;
4450;SDS011;2238;50.180;9.230;2022-11-20T05:31:31;30.17;;;16.53;;
4450;SDS011;2238;50.180;9.230;2022-11-20T05:34:32;23.13;;;14.50;;
4450;SDS011;2238;50.180;9.230;2022-11-20T05:37:33;29.97;;;15.30;;
4450;SDS011;2238;50.180;9.230;2022-11-20T05:40:33;27.70;;;18.10;;
4450;SDS011;2238;50.180;9.230;2022-11-20T05:43:35;23.73;;;14.40;;
4450;SDS011;2238;50.180;9.230;2022-11-20T05:46:37;23.23;;;15.30;;
4450;SDS011;2238;50.180;9.230;2022-11-20T05:49:37;25.80;;;15.73;;
4450;SDS011;2238;50.180;9.230;2022-11-20T05:52:38;23.10;;;13.60;;
4450;SDS011;2238;50.180;9.230;2022-11-20T05:55:38;21.23;;;14.50;;
4450;SDS011;2238;50.180;9.230;2022-11-20T05:58:39;26.83;;;14.80;;
4450;SDS011;2238;50.180;9.230;2022-11-20T06:01:39;24.47;;;15.17;;
4450;SDS011;2238;50.180;9.230;2022-11-20T06:04:40;30.47;;;17.30;;
4450;SDS011;2238;50.180;9.230;2022-11-20T06:07:41;24.53;;;15.40;;
4450;SDS011;2238;50.180;9.230;2022-11-20T06:10:41;25.60;;;16.40;;
4450;SDS011;2238;50.180;9.230;2022-11-20T06:13:42;29.57;;;16.77;;
4450;SDS011;2238;50.180;9.230;2022-11-20T06:16:43;26.80;;;17.23;;
4450;SDS011;2238;50.180;9.230;2022-11-20T06:19:43;29.23;;;17.00;;
4450;SDS011;2238;50.180;9.230;2022-11-20T06:22:44;38.23;;;20.53;;
4450;SDS011;2238;50.180;9.230;2022-11-20T06:25:44;33.60;;;20.60;;
4450;SDS011;2238;50.180;9.230;2022-11-20T06:28:45;31.93;;;18.83;;
4450;SDS011;2238;50.180;9.230;2022-11-20T06:31:46;31.97;;;18.63;;
4450;SDS011;2238;50.180;9.230;2022-11-20T06:34:46;32.10;;;19.60;;
4450;SDS011;2238;50.180;9.230;2022-11-20T06:37:47;32.53;;;21.07;;
4450;SDS011;2238;50.180;9.230;2022-11-20T06:40:48;39.80;;;21.20;;
4450;SDS011;2238;50.180;9.230;2022-11-20T06:43:48;35.70;;;20.53;;
4450;SDS011;2238;50.180;9.230;2022-11-20T06:46:49;39.17;;;20.90;;
4450;SDS011;2238;50.180;9.230;2022-11-20T06:49:50;37.73;;;21.63;;
4450;SDS011;2238;50.180;9.230;2022-11-20T06:52:51;43.90;;;21.87;;
4450;SDS011;2238;50.180;9.230;2022-11-20T06:55:52;43.60;;;20.97;;
4450;SDS011;2238;50.180;9.230;2022-11-20T06:58:55;38.00;;;20.17;;
4450;SDS011;2238;50.180;9.230;2022-11-20T07:01:55;38.57;;;20.50;;
4450;SDS011;2238;50.180;9.230;2022-11-20T07:04:56;41.10;;;21.67;;
4450;SDS011;2238;50.180;9.230;2022-11-20T07:07:57;39.97;;;21.10;;
4450;SDS011;2238;50.180;9.230;2022-11-20T07:10:58;39.90;;;20.83;;
4450;SDS011;2238;50.180;9.230;2022-11-20T07:14:00;41.87;;;20.87;;
4450;SDS011;2238;50.180;9.230;2022-11-20T07:17:01;51.33;;;29.67;;
4450;SDS011;2238;50.180;9.230;2022-11-20T07:20:01;62.30;;;35.83;;
4450;SDS011;2238;50.180;9.230;2022-11-20T07:23:02;48.23;;;21.93;;
4450;SDS011;2238;50.180;9.230;2022-11-20T07:26:06;40.23;;;21.30;;
4450;SDS011;2238;50.180;9.230;2022-11-20T07:29:08;40.87;;;21.07;;
4450;SDS011;2238;50.180;9.230;2022-11-20T07:32:09;36.37;;;20.10;;
4450;SDS011;2238;50.180;9.230;2022-11-20T07:35:09;39.97;;;22.20;;
4450;SDS011;2238;50.180;9.230;2022-11-20T07:38:10;39.27;;;21.87;;
4450;SDS011;2238;50.180;9.230;2022-11-20T07:41:11;31.40;;;17.70;;
4450;SDS011;2238;50.180;9.230;2022-11-20T07:44:11;42.73;;;28.77;;
4450;SDS011;2238;50.180;9.230;2022-11-20T07:47:12;38.00;;;19.97;;
4450;SDS011;2238;50.180;9.230;2022-11-20T07:50:13;37.77;;;18.87;;
4450;SDS011;2238;50.180;9.230;2022-11-20T07:53:14;31.00;;;16.93;;
4450;SDS011;2238;50.180;9.230;2022-11-20T07:56:20;30.50;;;17.67;;
4450;SDS011;2238;50.180;9.230;2022-11-20T07:59:21;32.87;;;18.23;;
4450;SDS011;2238;50.180;9.230;2022-11-20T08:02:21;32.63;;;17.80;;
4450;SDS011;2238;50.180;9.230;2022-11-20T08:05:23;31.07;;;18.33;;
4450;SDS011;2238;50.180;9.230;2022-11-20T08:08:23;36.80;;;21.33;;
4450;SDS011;2238;50.180;9.230;2022-11-20T08:11:24;24.30;;;16.00;;
4450;SDS011;2238;50.180;9.230;2022-11-20T08:14:43;24.97;;;15.97;;
4450;SDS011;2238;50.180;9.230;2022-11-20T08:17:44;26.80;;;16.37;;
4450;SDS011;2238;50.180;9.230;2022-11-20T08:20:44;30.70;;;18.43;;
4450;SDS011;2238;50.180;9.230;2022-11-20T08:23:45;35.70;;;19.23;;
4450;SDS011;2238;50.180;9.230;2022-11-20T08:26:46;36.93;;;20.17;;
4450;SDS011;2238;50.180;9.230;2022-11-20T08:29:46;40.73;;;22.60;;
4450;SDS011;2238;50.180;9.230;2022-11-20T08:32:47;44.30;;;20.83;;
4450;SDS011;2238;50.180;9.230;2022-11-20T08:35:47;45.60;;;23.67;;
4450;SDS011;2238;50.180;9.230;2022-11-20T08:38:48;44.70;;;23.30;;
4450;SDS011;2238;50.180;9.230;2022-11-20T08:41:50;47.40;;;23.73;;
4450;SDS011;2238;50.180;9.230;2022-11-20T08:44:50;49.30;;;25.10;;
4450;SDS011;2238;50.180;9.230;2022-11-20T08:47:51;47.40;;;23.43;;
4450;SDS011;2238;50.180;9.230;2022-11-20T08:50:51;45.53;;;24.00;;
4450;SDS011;2238;50.180;9.230;2022-11-20T08:53:52;43.30;;;24.23;;
4450;SDS011;2238;50.180;9.230;2022-11-20T08:56:52;53.23;;;25.27;;
4450;SDS011;2238;50.180;9.230;2022-11-20T08:59:53;46.90;;;23.97;;
4450;SDS011;2238;50.180;9.230;2022-11-20T09:02:53;54.63;;;26.50;;
4450;SDS011;2238;50.180;9.230;2022-11-20T09:05:58;56.50;;;26.80;;
4450;SDS011;2238;50.180;9.230;2022-11-20T09:09:04;61.27;;;26.30;;
4450;SDS011;2238;50.180;9.230;2022-11-20T09:12:05;62.13;;;26.83;;
4450;SDS011;2238;50.180;9.230;2022-11-20T09:15:06;44.57;;;25.40;;
4450;SDS011;2238;50.180;9.230;2022-11-20T09:18:07;41.07;;;22.43;;
4450;SDS011;2238;50.180;9.230;2022-11-20T09:21:11;36.17;;;20.67;;
4450;SDS011;2238;50.180;9.230;2022-11-20T09:24:13;39.93;;;21.57;;
4450;SDS011;2238;50.180;9.230;2022-11-20T09:27:14;35.83;;;19.60;;
4450;SDS011;2238;50.180;9.230;2022-11-20T09:30:14;31.27;;;18.13;;
4450;SDS011;2238;50.180;9.230;2022-11-20T09:33:15;29.30;;;15.90;;
4450;SDS011;2238;50.180;9.230;2022-11-20T09:36:16;22.47;;;14.50;;
4450;SDS011;2238;50.180;9.230;2022-11-20T09:39:18;30.07;;;16.43;;
4450;SDS011;2238;50.180;9.230;2022-11-20T09:51:36;50.93;;;24.33;;
4450;SDS011;2238;50.180;9.230;2022-11-20T09:54:45;44.83;;;23.00;;
4450;SDS011;2238;50.180;9.230;2022-11-20T09:57:46;51.30;;;26.53;;
4450;SDS011;2238;50.180;9.230;2022-11-20T10:00:51;42.80;;;22.87;;
4450;SDS011;2238;50.180;9.230;2022-11-20T10:07:18;40.87;;;22.70;;
4450;SDS011;2238;50.180;9.230;2022-11-20T10:10:45;34.37;;;18.23;;
4450;SDS011;2238;50.180;9.230;2022-11-20T10:17:08;33.50;;;21.10;;
4450;SDS011;2238;50.180;9.230;2022-11-20T10:20:18;40.10;;;20.60;;
4450;SDS011;2238;50.180;9.230;2022-11-20T10:27:01;39.83;;;21.67;;
4450;SDS011;2238;50.180;9.230;2022-11-20T10:54:04;40.50;;;24.97;;
4450;SDS011;2238;50.180;9.230;2022-11-20T10:56:55;33.07;;;22.80;;
4450;SDS011;2238;50.180;9.230;2022-11-20T11:00:04;35.13;;;23.73;;
4450;SDS011;2238;50.180;9.230;2022-11-20T11:06:38;41.93;;;24.80;;
4450;SDS011;2238;50.180;9.230;2022-11-20T11:09:51;38.90;;;22.37;;
4450;SDS011;2238;50.180;9.230;2022-11-20T11:12:54;40.90;;;24.73;;
4450;SDS011;2238;50.180;9.230;2022-11-20T11:15:55;39.93;;;25.03;;
4450;SDS011;2238;50.180;9.230;2022-11-20T11:19:29;38.27;;;22.70;;
4450;SDS011;2238;50.180;9.230;2022-11-20T11:22:24;32.97;;;21.03;;
4450;SDS011;2238;50.180;9.230;2022-11-20T11:25:26;34.17;;;23.27;;
4450;SDS011;2238;50.180;9.230;2022-11-20T11:28:33;33.43;;;22.60;;
4450;SDS011;2238;50.180;9.230;2022-11-20T11:31:34;29.33;;;20.60;;
4450;SDS011;2238;50.180;9.230;2022-11-20T11:34:35;37.53;;;21.57;;
4450;SDS011;2238;50.180;9.230;2022-11-20T11:37:36;33.63;;;21.83;;
4450;SDS011;2238;50.180;9.230;2022-11-20T11:40:39;35.87;;;21.93;;
4450;SDS011;2238;50.180;9.230;2022-11-20T11:43:40;38.63;;;21.83;;
4450;SDS011;2238;50.180;9.230;2022-11-20T11:47:25;32.83;;;21.97;;
4450;SDS011;2238;50.180;9.230;2022-11-20T11:50:30;43.63;;;25.50;;
4450;SDS011;2238;50.180;9.230;2022-11-20T11:53:31;48.90;;;31.40;;
4450;SDS011;2238;50.180;9.230;2022-11-20T11:56:33;39.93;;;23.90;;
4450;SDS011;2238;50.180;9.230;2022-11-20T11:59:44;41.37;;;27.80;;
4450;SDS011;2238;50.180;9.230;2022-11-20T12:03:04;44.90;;;25.10;;
4450;SDS011;2238;50.180;9.230;2022-11-20T12:06:38;40.50;;;23.23;;
4450;SDS011;2238;50.180;9.230;2022-11-20T12:09:43;41.03;;;23.20;;
4450;SDS011;2238;50.180;9.230;2022-11-20T12:12:53;45.47;;;29.47;;
4450;SDS011;2238;50.180;9.230;2022-11-20T12:15:58;43.77;;;33.13;;
4450;SDS011;2238;50.180;9.230;2022-11-20T12:19:00;52.47;;;35.20;;
4450;SDS011;2238;50.180;9.230;2022-11-20T12:22:38;52.57;;;33.20;;
4450;SDS011;2238;50.180;9.230;2022-11-20T12:25:31;43.70;;;25.20;;
4450;SDS011;2238;50.180;9.230;2022-11-20T12:28:47;40.07;;;24.63;;
4450;SDS011;2238;50.180;9.230;2022-11-20T12:32:01;47.33;;;30.73;;
4450;SDS011;2238;50.180;9.230;2022-11-20T12:55:03;48.53;;;27.87;;
4450;SDS011;2238;50.180;9.230;2022-11-20T13:05:43;41.00;;;22.20;;
4450;SDS011;2238;50.180;9.230;2022-11-20T13:08:41;44.97;;;24.70;;
4450;SDS011;2238;50.180;9.230;2022-11-20T13:18:40;38.53;;;23.50;;
4450;SDS011;2238;50.180;9.230;2022-11-20T13:21:43;40.87;;;23.20;;
4450;SDS011;2238;50.180;9.230;2022-11-20T13:24:51;38.87;;;22.83;;
4450;SDS011;2238;50.180;9.230;2022-11-20T13:27:52;40.57;;;23.00;;
4450;SDS011;2238;50.180;9.230;2022-11-20T13:30:54;46.67;;;24.77;;
4450;SDS011;2238;50.180;9.230;2022-11-20T13:33:56;43.23;;;24.97;;
4450;SDS011;2238;50.180;9.230;2022-11-20T13:36:59;43.77;;;25.60;;
4450;SDS011;2238;50.180;9.230;2022-11-20T13:43:19;41.83;;;24.53;;
4450;SDS011;2238;50.180;9.230;2022-11-20T13:46:36;41.63;;;25.07;;
4450;SDS011;2238;50.180;9.230;2022-11-20T13:49:44;38.03;;;21.90;;
4450;SDS011;2238;50.180;9.230;2022-11-20T13:52:55;33.17;;;19.90;;
4450;SDS011;2238;50.180;9.230;2022-11-20T13:59:31;37.63;;;21.73;;
4450;SDS011;2238;50.180;9.230;2022-11-20T14:03:05;34.23;;;23.40;;
4450;SDS011;2238;50.180;9.230;2022-11-20T14:06:29;39.47;;;22.73;;
4450;SDS011;2238;50.180;9.230;2022-11-20T14:09:33;35.37;;;22.20;;
4450;SDS011;2238;50.180;9.230;2022-11-20T14:12:34;33.90;;;21.07;;
4450;SDS011;2238;50.180;9.230;2022-11-20T14:15:36;34.67;;;23.47;;
4450;SDS011;2238;50.180;9.230;2022-11-20T14:18:40;31.90;;;20.03;;
4450;SDS011;2238;50.180;9.230;2022-11-20T14:21:41;35.70;;;23.07;;
4450;SDS011;2238;50.180;9.230;2022-11-20T14:24:41;29.97;;;21.67;;
4450;SDS011;2238;50.180;9.230;2022-11-20T14:27:43;37.80;;;26.93;;
4450;SDS011;2238;50.180;9.230;2022-11-20T14:30:53;37.30;;;21.80;;
4450;SDS011;2238;50.180;9.230;2022-11-20T14:33:55;38.33;;;26.50;;
4450;SDS011;2238;50.180;9.230;2022-11-20T14:37:00;30.87;;;20.70;;
4450;SDS011;2238;50.180;9.230;2022-11-20T14:43:27;26.17;;;18.73;;
4450;SDS011;2238;50.180;9.230;2022-11-20T14:46:28;28.90;;;18.57;;
4450;SDS011;2238;50.180;9.230;2022-11-20T14:49:31;32.97;;;19.07;;
4450;SDS011;2238;50.180;9.230;2022-11-20T14:52:32;23.63;;;15.30;;
4450;SDS011;2238;50.180;9.230;2022-11-20T14:55:34;30.73;;;19.10;;
4450;SDS011;2238;50.180;9.230;2022-11-20T14:58:38;27.47;;;17.87;;
4450;SDS011;2238;50.180;9.230;2022-11-20T15:01:39;26.57;;;16.63;;
4450;SDS011;2238;50.180;9.230;2022-11-20T15:04:49;28.73;;;17.27;;
4450;SDS011;2238;50.180;9.230;2022-11-20T15:08:07;25.67;;;15.70;;
4450;SDS011;2238;50.180;9.230;2022-11-20T15:11:19;32.47;;;23.13;;
4450;SDS011;2238;50.180;9.230;2022-11-20T15:14:27;28.77;;;19.70;;
4450;SDS011;2238;50.180;9.230;2022-11-20T15:17:30;28.83;;;20.70;;
4450;SDS011;2238;50.180;9.230;2022-11-20T15:20:32;29.47;;;19.10;;
4450;SDS011;2238;50.180;9.230;2022-11-20T15:23:33;29.30;;;17.97;;
4450;SDS011;2238;50.180;9.230;2022-11-20T15:26:34;24.70;;;16.53;;
4450;SDS011;2238;50.180;9.230;2022-11-20T15:29:36;26.37;;;15.90;;
4450;SDS011;2238;50.180;9.230;2022-11-20T15:32:37;24.70;;;16.00;;
4450;SDS011;2238;50.180;9.230;2022-11-20T15:35:38;30.17;;;17.20;;
4450;SDS011;2238;50.180;9.230;2022-11-20T15:38:39;23.40;;;14.60;;
4450;SDS011;2238;50.180;9.230;2022-11-20T15:41:40;23.60;;;15.13;;
4450;SDS011;2238;50.180;9.230;2022-11-20T15:44:40;30.93;;;17.77;;
4450;SDS011;2238;50.180;9.230;2022-11-20T15:47:41;28.20;;;18.07;;
4450;SDS011;2238;50.180;9.230;2022-11-20T15:51:24;30.30;;;17.60;;
4450;SDS011;2238;50.180;9.230;2022-11-20T15:54:18;28.67;;;18.90;;
4450;SDS011;2238;50.180;9.230;2022-11-20T15:57:21;27.17;;;17.53;;
4450;SDS011;2238;50.180;9.230;2022-11-20T16:00:23;24.97;;;16.23;;
4450;SDS011;2238;50.180;9.230;2022-11-20T16:03:23;32.53;;;21.80;;
4450;SDS011;2238;50.180;9.230;2022-11-20T16:06:24;22.10;;;15.30;;
4450;SDS011;2238;50.180;9.230;2022-11-20T16:09:25;37.37;;;23.77;;
4450;SDS011;2238;50.180;9.230;2022-11-20T16:12:25;36.00;;;21.77;;
4450;SDS011;2238;50.180;9.230;2022-11-20T16:15:46;24.60;;;17.77;;
4450;SDS011;2238;50.180;9.230;2022-11-20T16:18:50;25.73;;;16.80;;
4450;SDS011;2238;50.180;9.230;2022-11-20T16:21:51;25.27;;;17.20;;
4450;SDS011;2238;50.180;9.230;2022-11-20T16:24:52;35.07;;;23.20;;
4450;SDS011;2238;50.180;9.230;2022-11-20T16:27:52;33.60;;;24.93;;
4450;SDS011;2238;50.180;9.230;2022-11-20T16:30:54;37.70;;;25.87;;
4450;SDS011;2238;50.180;9.230;2022-11-20T16:33:56;39.53;;;27.00;;
4450;SDS011;2238;50.180;9.230;2022-11-20T16:36:58;40.43;;;25.60;;
4450;SDS011;2238;50.180;9.230;2022-11-20T16:39:58;36.13;;;26.10;;
4450;SDS011;2238;50.180;9.230;2022-11-20T16:43:09;37.67;;;24.57;;
4450;SDS011;2238;50.180;9.230;2022-11-20T16:46:15;42.80;;;28.93;;
4450;SDS011;2238;50.180;9.230;2022-11-20T16:49:17;49.23;;;30.60;;
4450;SDS011;2238;50.180;9.230;2022-11-20T16:52:17;34.97;;;23.03;;
4450;SDS011;2238;50.180;9.230;2022-11-20T16:55:18;36.90;;;26.73;;
4450;SDS011;2238;50.180;9.230;2022-11-20T16:58:18;33.10;;;23.00;;
4450;SDS011;2238;50.180;9.230;2022-11-20T17:01:19;39.97;;;28.27;;
4450;SDS011;2238;50.180;9.230;2022-11-20T17:04:21;35.92;;;25.02;;
4450;SDS011;2238;50.180;9.230;2022-11-20T17:07:22;34.03;;;22.40;;
4450;SDS011;2238;50.180;9.230;2022-11-20T17:10:22;54.60;;;37.97;;
4450;SDS011;2238;50.180;9.230;2022-11-20T17:13:23;35.70;;;26.70;;
4450;SDS011;2238;50.180;9.230;2022-11-20T17:16:24;32.97;;;25.17;;
4450;SDS011;2238;50.180;9.230;2022-11-20T17:19:24;32.00;;;23.00;;
4450;SDS011;2238;50.180;9.230;2022-11-20T17:22:25;18.70;;;14.57;;
4450;SDS011;2238;50.180;9.230;2022-11-20T17:25:26;25.47;;;16.87;;
4450;SDS011;2238;50.180;9.230;2022-11-20T17:28:27;18.60;;;13.77;;
4450;SDS011;2238;50.180;9.230;2022-11-20T17:31:28;20.50;;;14.20;;
4450;SDS011;2238;50.180;9.230;2022-11-20T17:34:31;23.00;;;15.80;;
4450;SDS011;2238;50.180;9.230;2022-11-20T17:37:31;19.30;;;16.50;;
4450;SDS011;2238;50.180;9.230;2022-11-20T17:40:32;17.43;;;12.37;;
4450;SDS011;2238;50.180;9.230;2022-11-20T17:43:33;19.30;;;14.20;;
4450;SDS011;2238;50.180;9.230;2022-11-20T17:46:36;20.20;;;15.40;;
4450;SDS011;2238;50.180;9.230;2022-11-20T17:49:36;17.07;;;12.80;;
4450;SDS011;2238;50.180;9.230;2022-11-20T17:52:37;15.83;;;9.40;;
4450;SDS011;2238;50.180;9.230;2022-11-20T17:55:37;11.67;;;9.33;;
4450;SDS011;2238;50.180;9.230;2022-11-20T17:58:56;11.80;;;9.43;;
4450;SDS011;2238;50.180;9.230;2022-11-20T18:01:57;10.43;;;9.33;;
4450;SDS011;2238;50.180;9.230;2022-11-20T18:04:58;13.43;;;9.30;;
4450;SDS011;2238;50.180;9.230;2022-11-20T18:07:58;14.13;;;11.97;;
4450;SDS011;2238;50.180;9.230;2022-11-20T18:10:59;14.90;;;12.60;;
4450;SDS011;2238;50.180;9.230;2022-11-20T18:14:00;17.67;;;12.53;;
4450;SDS011;2238;50.180;9.230;2022-11-20T18:17:22;13.80;;;10.57;;
4450;SDS011;2238;50.180;9.230;2022-11-20T18:20:23;12.27;;;10.40;;
4450;SDS011;2238;50.180;9.230;2022-11-20T18:23:23;13.50;;;11.00;;
4450;SDS011;2238;50.180;9.230;2022-11-20T18:26:24;14.73;;;11.23;;
4450;SDS011;2238;50.180;9.230;2022-11-20T18:30:39;13.37;;;8.87;;
4450;SDS011;2238;50.180;9.230;2022-11-20T18:33:40;14.70;;;10.93;;
4450;SDS011;2238;50.180;9.230;2022-11-20T18:36:40;11.07;;;9.80;;
4450;SDS011;2238;50.180;9.230;2022-11-20T18:39:41;12.77;;;8.40;;
4450;SDS011;2238;50.180;9.230;2022-11-20T18:42:42;13.67;;;8.33;;
4450;SDS011;2238;50.180;9.230;2022-11-20T18:46:02;9.30;;;8.00;;
4450;SDS011;2238;50.180;9.230;2022-11-20T18:49:03;11.20;;;8.33;;
4450;SDS011;2238;50.180;9.230;2022-11-20T18:52:03;10.13;;;9.03;;
4450;SDS011;2238;50.180;9.230;2022-11-20T18:55:04;10.23;;;9.13;;
4450;SDS011;2238;50.180;9.230;2022-11-20T18:58:05;9.70;;;7.77;;
4450;SDS011;2238;50.180;9.230;2022-11-20T19:01:06;9.83;;;7.67;;
4450;SDS011;2238;50.180;9.230;2022-11-20T19:04:08;11.13;;;8.20;;
4450;SDS011;2238;50.180;9.230;2022-11-20T19:07:13;11.33;;;9.03;;
4450;SDS011;2238;50.180;9.230;2022-11-20T19:10:16;11.00;;;9.87;;
4450;SDS011;2238;50.180;9.230;2022-11-20T19:13:19;11.53;;;9.27;;
4450;SDS011;2238;50.180;9.230;2022-11-20T19:16:20;8.75;;;7.85;;
4450;SDS011;2238;50.180;9.230;2022-11-20T19:19:21;9.30;;;8.30;;
4450;SDS011;2238;50.180;9.230;2022-11-20T19:22:22;11.43;;;8.07;;
4450;SDS011;2238;50.180;9.230;2022-11-20T19:25:22;10.43;;;9.13;;
4450;SDS011;2238;50.180;9.230;2022-11-20T19:28:23;11.23;;;8.53;;
4450;SDS011;2238;50.180;9.230;2022-11-20T19:31:29;8.57;;;6.73;;
4450;SDS011;2238;50.180;9.230;2022-11-20T19:34:30;7.87;;;6.70;;
4450;SDS011;2238;50.180;9.230;2022-11-20T19:37:31;7.87;;;6.60;;
4450;SDS011;2238;50.180;9.230;2022-11-20T19:40:33;6.40;;;5.57;;
4450;SDS011;2238;50.180;9.230;2022-11-20T19:43:34;8.30;;;6.77;;
4450;SDS011;2238;50.180;9.230;2022-11-20T19:46:35;10.63;;;7.80;;
4450;SDS011;2238;50.180;9.230;2022-11-20T19:49:37;12.83;;;6.70;;
4450;SDS011;2238;50.180;9.230;2022-11-20T19:52:40;7.30;;;6.70;;
4450;SDS011;2238;50.180;9.230;2022-11-20T19:55:41;7.73;;;6.07;;
4450;SDS011;2238;50.180;9.230;2022-11-20T19:58:42;10.77;;;6.90;;
4450;SDS011;2238;50.180;9.230;2022-11-20T20:01:42;7.83;;;5.73;;